sensor_id;sensor_type;location;lat;lon;timestamp;pressure;altitude;pressure_sealevel;temperature;humidity
25430;BME280;13360;48.152;-1.788;2023-06-14T00:02:14;101086.25;;;20.67;100.00
25430;BME280;13360;48.152;-1.788;2023-06-14T00:04:40;101078.19;;;20.65;100.00
25430;BME280;13360;48.152;-1.788;2023-06-14T00:07:06;101078.91;;;20.62;100.00
25430;BME280;13360;48.152;-1.788;2023-06-14T00:09:33;101087.34;;;20.62;100.00
25430;BME280;13360;48.152;-1.788;2023-06-14T00:11:59;101080.53;;;20.63;100.00
25430;BME280;13360;48.152;-1.788;2023-06-14T00:14:24;101083.72;;;20.62;100.00
25430;BME280;13360;48.152;-1.788;2023-06-14T00:16:49;101088.38;;;20.58;100.00
25430;BME280;13360;48.152;-1.788;2023-06-14T00:19:17;101096.78;;;20.58;100.00
25430;BME280;13360;48.152;-1.788;2023-06-14T00:21:42;101089.56;;;20.57;100.00
25430;BME280;13360;48.152;-1.788;2023-06-14T00:24:08;101084.66;;;20.54;100.00
25430;BME280;13360;48.152;-1.788;2023-06-14T00:26:33;101083.38;;;20.51;100.00
25430;BME280;13360;48.152;-1.788;2023-06-14T00:28:58;101088.19;;;20.51;100.00
25430;BME280;13360;48.152;-1.788;2023-06-14T00:31:24;101084.91;;;20.49;100.00
25430;BME280;13360;48.152;-1.788;2023-06-14T00:33:49;101089.25;;;20.46;100.00
25430;BME280;13360;48.152;-1.788;2023-06-14T00:36:14;101081.56;;;20.43;100.00
25430;BME280;13360;48.152;-1.788;2023-06-14T00:38:40;101092.31;;;20.41;100.00
25430;BME280;13360;48.152;-1.788;2023-06-14T00:41:05;101089.81;;;20.39;100.00
25430;BME280;13360;48.152;-1.788;2023-06-14T00:43:30;101092.50;;;20.36;100.00
25430;BME280;13360;48.152;-1.788;2023-06-14T00:45:56;101088.44;;;20.33;100.00
25430;BME280;13360;48.152;-1.788;2023-06-14T00:48:21;101089.94;;;20.31;100.00
25430;BME280;13360;48.152;-1.788;2023-06-14T00:50:47;101084.69;;;20.29;100.00
25430;BME280;13360;48.152;-1.788;2023-06-14T00:53:13;101091.38;;;20.25;100.00
25430;BME280;13360;48.152;-1.788;2023-06-14T00:55:40;101097.69;;;20.22;100.00
25430;BME280;13360;48.152;-1.788;2023-06-14T00:58:05;101102.34;;;20.18;100.00
25430;BME280;13360;48.152;-1.788;2023-06-14T01:00:31;101102.72;;;20.16;100.00
25430;BME280;13360;48.152;-1.788;2023-06-14T01:02:56;101101.88;;;20.16;100.00
25430;BME280;13360;48.152;-1.788;2023-06-14T01:05:22;101097.91;;;20.17;100.00
25430;BME280;13360;48.152;-1.788;2023-06-14T01:10:33;101114.75;;;20.17;100.00
25430;BME280;13360;48.152;-1.788;2023-06-14T01:15:29;101106.22;;;20.13;100.00
25430;BME280;13360;48.152;-1.788;2023-06-14T01:17:55;101108.22;;;20.13;100.00
25430;BME280;13360;48.152;-1.788;2023-06-14T01:20:22;101105.75;;;20.11;100.00
25430;BME280;13360;48.152;-1.788;2023-06-14T01:22:53;101096.41;;;20.07;100.00
25430;BME280;13360;48.152;-1.788;2023-06-14T01:25:19;101101.94;;;20.03;100.00
25430;BME280;13360;48.152;-1.788;2023-06-14T01:27:55;101103.91;;;20.03;100.00
25430;BME280;13360;48.152;-1.788;2023-06-14T01:30:22;101102.28;;;20.02;100.00
25430;BME280;13360;48.152;-1.788;2023-06-14T01:32:50;101104.13;;;19.98;100.00
25430;BME280;13360;48.152;-1.788;2023-06-14T01:35:16;101103.19;;;19.94;100.00
25430;BME280;13360;48.152;-1.788;2023-06-14T01:37:41;101111.16;;;19.92;100.00
25430;BME280;13360;48.152;-1.788;2023-06-14T01:40:08;101118.28;;;19.89;100.00
25430;BME280;13360;48.152;-1.788;2023-06-14T01:42:35;101112.22;;;19.87;100.00
25430;BME280;13360;48.152;-1.788;2023-06-14T01:45:02;101117.47;;;19.89;100.00
25430;BME280;13360;48.152;-1.788;2023-06-14T01:47:28;101112.22;;;19.87;100.00
25430;BME280;13360;48.152;-1.788;2023-06-14T01:49:53;101116.53;;;19.85;100.00
25430;BME280;13360;48.152;-1.788;2023-06-14T01:52:18;101117.22;;;19.82;100.00
25430;BME280;13360;48.152;-1.788;2023-06-14T01:54:44;101121.22;;;19.81;100.00
25430;BME280;13360;48.152;-1.788;2023-06-14T01:57:09;101118.41;;;19.81;100.00
25430;BME280;13360;48.152;-1.788;2023-06-14T01:59:35;101126.00;;;19.80;100.00
25430;BME280;13360;48.152;-1.788;2023-06-14T02:02:02;101121.06;;;19.77;100.00
25430;BME280;13360;48.152;-1.788;2023-06-14T02:04:27;101132.78;;;19.79;100.00
25430;BME280;13360;48.152;-1.788;2023-06-14T02:06:52;101121.88;;;19.77;100.00
25430;BME280;13360;48.152;-1.788;2023-06-14T02:09:17;101135.06;;;19.77;100.00
25430;BME280;13360;48.152;-1.788;2023-06-14T02:11:43;101126.56;;;19.73;100.00
25430;BME280;13360;48.152;-1.788;2023-06-14T02:14:08;101125.28;;;19.71;100.00
25430;BME280;13360;48.152;-1.788;2023-06-14T02:16:36;101140.44;;;19.70;100.00
25430;BME280;13360;48.152;-1.788;2023-06-14T02:19:02;101136.00;;;19.69;100.00
25430;BME280;13360;48.152;-1.788;2023-06-14T02:21:27;101135.91;;;19.65;100.00
25430;BME280;13360;48.152;-1.788;2023-06-14T02:23:53;101144.66;;;19.64;100.00
25430;BME280;13360;48.152;-1.788;2023-06-14T02:26:18;101138.69;;;19.65;100.00
25430;BME280;13360;48.152;-1.788;2023-06-14T02:28:43;101144.19;;;19.62;100.00
25430;BME280;13360;48.152;-1.788;2023-06-14T02:31:08;101139.75;;;19.61;100.00
25430;BME280;13360;48.152;-1.788;2023-06-14T02:33:34;101142.09;;;19.59;100.00
25430;BME280;13360;48.152;-1.788;2023-06-14T02:35:59;101143.72;;;19.60;100.00
25430;BME280;13360;48.152;-1.788;2023-06-14T02:38:24;101143.25;;;19.58;100.00
25430;BME280;13360;48.152;-1.788;2023-06-14T02:40:50;101141.94;;;19.55;100.00
25430;BME280;13360;48.152;-1.788;2023-06-14T02:43:15;101138.31;;;19.55;100.00
25430;BME280;13360;48.152;-1.788;2023-06-14T02:45:42;101144.59;;;19.52;100.00
25430;BME280;13360;48.152;-1.788;2023-06-14T02:48:07;101148.91;;;19.49;100.00
25430;BME280;13360;48.152;-1.788;2023-06-14T02:50:33;101151.25;;;19.47;100.00
25430;BME280;13360;48.152;-1.788;2023-06-14T02:52:58;101150.41;;;19.46;100.00
25430;BME280;13360;48.152;-1.788;2023-06-14T02:55:23;101152.75;;;19.44;100.00
25430;BME280;13360;48.152;-1.788;2023-06-14T02:57:48;101149.50;;;19.42;100.00
25430;BME280;13360;48.152;-1.788;2023-06-14T03:00:14;101177.03;;;19.40;100.00
25430;BME280;13360;48.152;-1.788;2023-06-14T03:02:39;101177.38;;;19.39;100.00
25430;BME280;13360;48.152;-1.788;2023-06-14T03:05:05;101174.09;;;19.37;100.00
25430;BME280;13360;48.152;-1.788;2023-06-14T03:07:32;101175.59;;;19.34;100.00
25430;BME280;13360;48.152;-1.788;2023-06-14T03:09:57;101187.13;;;19.33;100.00
25430;BME280;13360;48.152;-1.788;2023-06-14T03:12:23;101189.13;;;19.32;100.00
25430;BME280;13360;48.152;-1.788;2023-06-14T03:14:48;101194.72;;;19.32;100.00
25430;BME280;13360;48.152;-1.788;2023-06-14T03:17:15;101203.81;;;19.29;100.00
25430;BME280;13360;48.152;-1.788;2023-06-14T03:19:42;101208.94;;;19.27;100.00
25430;BME280;13360;48.152;-1.788;2023-06-14T03:22:07;101211.75;;;19.27;100.00
25430;BME280;13360;48.152;-1.788;2023-06-14T03:24:33;101213.25;;;19.25;100.00
25430;BME280;13360;48.152;-1.788;2023-06-14T03:27:01;101221.88;;;19.19;100.00
25430;BME280;13360;48.152;-1.788;2023-06-14T03:29:26;101221.06;;;19.19;100.00
25430;BME280;13360;48.152;-1.788;2023-06-14T03:32:01;101232.59;;;19.17;100.00
25430;BME280;13360;48.152;-1.788;2023-06-14T03:34:27;101239.69;;;19.15;100.00
25430;BME280;13360;48.152;-1.788;2023-06-14T03:36:53;101252.84;;;19.14;100.00
25430;BME280;13360;48.152;-1.788;2023-06-14T03:39:18;101266.72;;;19.11;100.00
25430;BME280;13360;48.152;-1.788;2023-06-14T03:41:44;101283.53;;;19.11;100.00
25430;BME280;13360;48.152;-1.788;2023-06-14T03:44:09;101285.16;;;19.12;100.00
25430;BME280;13360;48.152;-1.788;2023-06-14T03:46:34;101290.78;;;19.12;100.00
25430;BME280;13360;48.152;-1.788;2023-06-14T03:49:00;101303.94;;;19.11;100.00
25430;BME280;13360;48.152;-1.788;2023-06-14T03:51:26;101305.94;;;19.11;100.00
25430;BME280;13360;48.152;-1.788;2023-06-14T03:53:51;101309.88;;;19.10;100.00
25430;BME280;13360;48.152;-1.788;2023-06-14T03:56:16;101310.91;;;19.05;100.00
25430;BME280;13360;48.152;-1.788;2023-06-14T03:58:41;101315.22;;;19.03;100.00
25430;BME280;13360;48.152;-1.788;2023-06-14T04:01:07;101323.97;;;19.01;100.00
25430;BME280;13360;48.152;-1.788;2023-06-14T04:03:32;101331.88;;;18.99;100.00
25430;BME280;13360;48.152;-1.788;2023-06-14T04:05:58;101336.66;;;18.99;100.00
25430;BME280;13360;48.152;-1.788;2023-06-14T04:08:24;101344.25;;;18.98;100.00
25430;BME280;13360;48.152;-1.788;2023-06-14T04:10:50;101347.84;;;18.99;100.00
25430;BME280;13360;48.152;-1.788;2023-06-14T04:13:15;101352.16;;;18.96;100.00
25430;BME280;13360;48.152;-1.788;2023-06-14T04:15:40;101352.47;;;18.95;100.00
25430;BME280;13360;48.152;-1.788;2023-06-14T04:18:10;101357.59;;;18.93;100.00
25430;BME280;13360;48.152;-1.788;2023-06-14T04:20:36;101351.03;;;18.88;100.00
25430;BME280;13360;48.152;-1.788;2023-06-14T04:23:11;101358.59;;;18.88;100.00
25430;BME280;13360;48.152;-1.788;2023-06-14T04:25:37;101368.66;;;18.89;100.00
25430;BME280;13360;48.152;-1.788;2023-06-14T04:28:02;101357.78;;;18.87;100.00
25430;BME280;13360;48.152;-1.788;2023-06-14T04:30:28;101372.59;;;18.88;100.00
25430;BME280;13360;48.152;-1.788;2023-06-14T04:32:56;101381.69;;;18.85;100.00
25430;BME280;13360;48.152;-1.788;2023-06-14T04:35:21;101386.44;;;18.84;100.00
25430;BME280;13360;48.152;-1.788;2023-06-14T04:37:48;101393.69;;;18.85;100.00
25430;BME280;13360;48.152;-1.788;2023-06-14T04:40:14;101390.88;;;18.85;100.00
25430;BME280;13360;48.152;-1.788;2023-06-14T04:42:39;101397.31;;;18.86;100.00
25430;BME280;13360;48.152;-1.788;2023-06-14T04:45:06;101402.56;;;18.87;100.00
25430;BME280;13360;48.152;-1.788;2023-06-14T04:47:32;101404.88;;;18.85;100.00
25430;BME280;13360;48.152;-1.788;2023-06-14T04:49:57;101410.47;;;18.85;100.00
25430;BME280;13360;48.152;-1.788;2023-06-14T04:52:23;101428.91;;;18.86;100.00
25430;BME280;13360;48.152;-1.788;2023-06-14T04:54:51;101439.28;;;18.86;100.00
25430;BME280;13360;48.152;-1.788;2023-06-14T04:57:17;101451.31;;;18.86;100.00
25430;BME280;13360;48.152;-1.788;2023-06-14T04:59:48;101452.94;;;18.87;100.00
25430;BME280;13360;48.152;-1.788;2023-06-14T05:02:20;101462.97;;;18.88;100.00
25430;BME280;13360;48.152;-1.788;2023-06-14T05:04:45;101474.66;;;18.91;100.00
25430;BME280;13360;48.152;-1.788;2023-06-14T05:07:12;101479.28;;;18.86;100.00
25430;BME280;13360;48.152;-1.788;2023-06-14T05:09:39;101531.31;;;18.87;100.00
25430;BME280;13360;48.152;-1.788;2023-06-14T05:12:04;101540.19;;;18.89;100.00
25430;BME280;13360;48.152;-1.788;2023-06-14T05:14:29;101552.22;;;18.90;100.00
25430;BME280;13360;48.152;-1.788;2023-06-14T05:16:55;101579.72;;;18.88;100.00
25430;BME280;13360;48.152;-1.788;2023-06-14T05:19:20;101627.31;;;18.88;100.00
25430;BME280;13360;48.152;-1.788;2023-06-14T05:21:46;101641.63;;;18.86;100.00
25430;BME280;13360;48.152;-1.788;2023-06-14T05:24:12;101672.91;;;18.88;100.00
25430;BME280;13360;48.152;-1.788;2023-06-14T05:26:37;101705.69;;;18.88;100.00
25430;BME280;13360;48.152;-1.788;2023-06-14T05:29:02;101731.38;;;18.90;100.00
25430;BME280;13360;48.152;-1.788;2023-06-14T05:31:28;101817.81;;;18.92;100.00
25430;BME280;13360;48.152;-1.788;2023-06-14T05:33:53;101857.00;;;18.92;100.00
25430;BME280;13360;48.152;-1.788;2023-06-14T05:36:19;101871.50;;;18.94;100.00
25430;BME280;13360;48.152;-1.788;2023-06-14T05:38:46;101899.19;;;18.95;100.00
25430;BME280;13360;48.152;-1.788;2023-06-14T05:41:11;101923.25;;;18.96;100.00
25430;BME280;13360;48.152;-1.788;2023-06-14T05:43:37;101940.84;;;18.97;100.00
25430;BME280;13360;48.152;-1.788;2023-06-14T05:46:02;101954.84;;;18.97;100.00
25430;BME280;13360;48.152;-1.788;2023-06-14T05:48:28;101971.66;;;18.97;100.00
25430;BME280;13360;48.152;-1.788;2023-06-14T05:50:53;101999.44;;;18.93;100.00
25430;BME280;13360;48.152;-1.788;2023-06-14T05:53:18;102017.06;;;18.94;100.00
25430;BME280;13360;48.152;-1.788;2023-06-14T05:55:43;102034.06;;;18.97;100.00
25430;BME280;13360;48.152;-1.788;2023-06-14T05:58:08;102042.47;;;18.97;100.00
25430;BME280;13360;48.152;-1.788;2023-06-14T06:00:35;102058.13;;;18.98;100.00
25430;BME280;13360;48.152;-1.788;2023-06-14T06:03:01;102064.53;;;18.99;100.00
25430;BME280;13360;48.152;-1.788;2023-06-14T06:05:26;102073.44;;;19.01;100.00
25430;BME280;13360;48.152;-1.788;2023-06-14T06:07:51;102085.78;;;19.00;100.00
25430;BME280;13360;48.152;-1.788;2023-06-14T06:10:17;102104.75;;;19.03;100.00
25430;BME280;13360;48.152;-1.788;2023-06-14T06:12:42;102113.66;;;19.05;100.00
25430;BME280;13360;48.152;-1.788;2023-06-14T06:15:07;102134.59;;;19.07;100.00
25430;BME280;13360;48.152;-1.788;2023-06-14T06:17:36;102158.47;;;19.05;100.00
25430;BME280;13360;48.152;-1.788;2023-06-14T06:20:02;102171.94;;;19.03;100.00
25430;BME280;13360;48.152;-1.788;2023-06-14T06:22:28;102187.28;;;19.05;100.00
25430;BME280;13360;48.152;-1.788;2023-06-14T06:24:53;102202.63;;;19.08;100.00
25430;BME280;13360;48.152;-1.788;2023-06-14T06:27:18;102203.13;;;19.10;100.00
25430;BME280;13360;48.152;-1.788;2023-06-14T06:29:43;102211.19;;;19.11;100.00
25430;BME280;13360;48.152;-1.788;2023-06-14T06:32:09;102235.75;;;19.14;100.00
25430;BME280;13360;48.152;-1.788;2023-06-14T06:34:34;102228.84;;;19.12;100.00
25430;BME280;13360;48.152;-1.788;2023-06-14T06:37:01;102222.91;;;19.13;100.00
25430;BME280;13360;48.152;-1.788;2023-06-14T06:39:26;102233.19;;;19.18;100.00
25430;BME280;13360;48.152;-1.788;2023-06-14T06:41:51;102239.78;;;19.22;100.00
25430;BME280;13360;48.152;-1.788;2023-06-14T06:44:16;102241.94;;;19.25;100.00
25430;BME280;13360;48.152;-1.788;2023-06-14T06:46:43;102239.97;;;19.26;100.00
25430;BME280;13360;48.152;-1.788;2023-06-14T06:49:08;102254.16;;;19.29;100.00
25430;BME280;13360;48.152;-1.788;2023-06-14T06:51:37;102250.41;;;19.34;100.00
25430;BME280;13360;48.152;-1.788;2023-06-14T06:54:02;102245.50;;;19.39;100.00
25430;BME280;13360;48.152;-1.788;2023-06-14T06:56:28;102244.53;;;19.44;100.00
25430;BME280;13360;48.152;-1.788;2023-06-14T06:58:53;102222.94;;;19.44;100.00
25430;BME280;13360;48.152;-1.788;2023-06-14T07:01:18;102218.19;;;19.45;100.00
25430;BME280;13360;48.152;-1.788;2023-06-14T07:03:46;102238.28;;;19.47;100.00
25430;BME280;13360;48.152;-1.788;2023-06-14T07:06:11;102252.31;;;19.47;100.00
25430;BME280;13360;48.152;-1.788;2023-06-14T07:08:37;102244.06;;;19.50;100.00
25430;BME280;13360;48.152;-1.788;2023-06-14T07:11:04;102249.34;;;19.52;100.00
25430;BME280;13360;48.152;-1.788;2023-06-14T07:13:30;102243.13;;;19.55;100.00
25430;BME280;13360;48.152;-1.788;2023-06-14T07:15:56;102235.56;;;19.56;100.00
25430;BME280;13360;48.152;-1.788;2023-06-14T07:18:22;102252.59;;;19.59;100.00
25430;BME280;13360;48.152;-1.788;2023-06-14T07:20:47;102283.28;;;19.64;100.00
25430;BME280;13360;48.152;-1.788;2023-06-14T07:23:12;102312.50;;;19.72;100.00
25430;BME280;13360;48.152;-1.788;2023-06-14T07:25:38;102304.59;;;19.74;100.00
25430;BME280;13360;48.152;-1.788;2023-06-14T07:28:03;102291.06;;;19.76;100.00
25430;BME280;13360;48.152;-1.788;2023-06-14T07:30:28;102293.09;;;19.84;100.00
25430;BME280;13360;48.152;-1.788;2023-06-14T07:32:55;102304.50;;;19.88;100.00
25430;BME280;13360;48.152;-1.788;2023-06-14T07:35:20;102331.06;;;19.90;100.00
25430;BME280;13360;48.152;-1.788;2023-06-14T07:37:45;102325.81;;;19.97;100.00
25430;BME280;13360;48.152;-1.788;2023-06-14T07:40:12;102295.78;;;19.98;100.00
25430;BME280;13360;48.152;-1.788;2023-06-14T07:42:37;102315.47;;;20.06;100.00
25430;BME280;13360;48.152;-1.788;2023-06-14T07:45:03;102329.19;;;20.17;100.00
25430;BME280;13360;48.152;-1.788;2023-06-14T07:47:28;102316.56;;;20.28;100.00
25430;BME280;13360;48.152;-1.788;2023-06-14T07:49:53;102281.56;;;20.34;100.00
25430;BME280;13360;48.152;-1.788;2023-06-14T07:52:19;102279.50;;;20.48;100.00
25430;BME280;13360;48.152;-1.788;2023-06-14T07:54:45;102293.88;;;20.55;100.00
25430;BME280;13360;48.152;-1.788;2023-06-14T07:57:10;102305.63;;;20.75;100.00
25430;BME280;13360;48.152;-1.788;2023-06-14T07:59:35;102323.84;;;21.03;100.00
25430;BME280;13360;48.152;-1.788;2023-06-14T08:02:00;102280.69;;;21.16;100.00
25430;BME280;13360;48.152;-1.788;2023-06-14T08:04:26;102251.59;;;21.21;100.00
25430;BME280;13360;48.152;-1.788;2023-06-14T08:06:51;102230.13;;;21.34;100.00
25430;BME280;13360;48.152;-1.788;2023-06-14T08:09:16;102200.53;;;21.45;100.00
25430;BME280;13360;48.152;-1.788;2023-06-14T08:11:41;102179.31;;;21.56;100.00
25430;BME280;13360;48.152;-1.788;2023-06-14T08:14:08;102169.22;;;21.55;100.00
25430;BME280;13360;48.152;-1.788;2023-06-14T08:16:33;102155.84;;;21.52;100.00
25430;BME280;13360;48.152;-1.788;2023-06-14T08:18:58;102169.56;;;21.53;100.00
25430;BME280;13360;48.152;-1.788;2023-06-14T08:21:23;102161.09;;;21.62;100.00
25430;BME280;13360;48.152;-1.788;2023-06-14T08:23:51;102196.19;;;21.85;100.00
25430;BME280;13360;48.152;-1.788;2023-06-14T08:26:18;102209.53;;;22.06;100.00
25430;BME280;13360;48.152;-1.788;2023-06-14T08:28:43;102201.88;;;22.15;100.00
25430;BME280;13360;48.152;-1.788;2023-06-14T08:31:09;102180.06;;;22.12;100.00
25430;BME280;13360;48.152;-1.788;2023-06-14T08:33:34;102169.16;;;22.02;100.00
25430;BME280;13360;48.152;-1.788;2023-06-14T08:35:59;102142.44;;;21.87;100.00
25430;BME280;13360;48.152;-1.788;2023-06-14T08:38:25;102126.91;;;21.81;100.00
25430;BME280;13360;48.152;-1.788;2023-06-14T08:40:51;102154.00;;;21.85;100.00
25430;BME280;13360;48.152;-1.788;2023-06-14T08:43:17;102169.75;;;21.86;100.00
25430;BME280;13360;48.152;-1.788;2023-06-14T08:45:43;102163.78;;;21.88;100.00
25430;BME280;13360;48.152;-1.788;2023-06-14T08:48:10;102117.28;;;21.90;100.00
25430;BME280;13360;48.152;-1.788;2023-06-14T08:50:36;102089.16;;;21.90;100.00
25430;BME280;13360;48.152;-1.788;2023-06-14T08:53:04;102171.19;;;21.92;100.00
25430;BME280;13360;48.152;-1.788;2023-06-14T08:55:31;102230.38;;;22.05;100.00
25430;BME280;13360;48.152;-1.788;2023-06-14T08:57:58;102252.72;;;22.10;100.00
25430;BME280;13360;48.152;-1.788;2023-06-14T09:00:24;102235.44;;;22.20;100.00
25430;BME280;13360;48.152;-1.788;2023-06-14T09:02:49;102215.75;;;22.20;100.00
25430;BME280;13360;48.152;-1.788;2023-06-14T09:05:18;102181.59;;;22.30;100.00
25430;BME280;13360;48.152;-1.788;2023-06-14T09:07:43;102134.47;;;22.39;100.00
25430;BME280;13360;48.152;-1.788;2023-06-14T09:10:09;102205.59;;;22.48;100.00
25430;BME280;13360;48.152;-1.788;2023-06-14T09:12:36;102293.19;;;22.56;100.00
25430;BME280;13360;48.152;-1.788;2023-06-14T09:15:02;102332.31;;;22.78;100.00
25430;BME280;13360;48.152;-1.788;2023-06-14T09:17:32;102343.41;;;23.25;100.00
25430;BME280;13360;48.152;-1.788;2023-06-14T09:19:58;102268.50;;;23.57;100.00
25430;BME280;13360;48.152;-1.788;2023-06-14T09:22:23;102159.94;;;23.63;100.00
25430;BME280;13360;48.152;-1.788;2023-06-14T09:24:48;102140.13;;;23.51;100.00
25430;BME280;13360;48.152;-1.788;2023-06-14T09:27:16;102091.50;;;23.41;100.00
25430;BME280;13360;48.152;-1.788;2023-06-14T09:29:41;102008.22;;;23.32;100.00
25430;BME280;13360;48.152;-1.788;2023-06-14T09:32:07;101980.03;;;23.32;100.00
25430;BME280;13360;48.152;-1.788;2023-06-14T09:34:32;101996.94;;;23.32;100.00
25430;BME280;13360;48.152;-1.788;2023-06-14T09:36:58;102017.38;;;23.41;100.00
25430;BME280;13360;48.152;-1.788;2023-06-14T09:39:23;102104.56;;;23.70;100.00
25430;BME280;13360;48.152;-1.788;2023-06-14T09:41:50;102044.72;;;23.89;100.00
25430;BME280;13360;48.152;-1.788;2023-06-14T09:44:15;101995.19;;;24.04;100.00
25430;BME280;13360;48.152;-1.788;2023-06-14T09:46:42;101945.97;;;24.17;100.00
25430;BME280;13360;48.152;-1.788;2023-06-14T09:49:08;101965.47;;;24.66;100.00
25430;BME280;13360;48.152;-1.788;2023-06-14T09:51:33;101885.72;;;25.04;100.00
25430;BME280;13360;48.152;-1.788;2023-06-14T09:54:00;101796.72;;;24.98;100.00
25430;BME280;13360;48.152;-1.788;2023-06-14T09:56:27;101760.63;;;24.72;100.00
25430;BME280;13360;48.152;-1.788;2023-06-14T09:58:54;101791.47;;;24.46;100.00
25430;BME280;13360;48.152;-1.788;2023-06-14T10:01:20;101846.97;;;24.38;100.00
25430;BME280;13360;48.152;-1.788;2023-06-14T10:03:46;101930.09;;;24.72;100.00
25430;BME280;13360;48.152;-1.788;2023-06-14T10:06:13;101909.66;;;25.26;100.00
25430;BME280;13360;48.152;-1.788;2023-06-14T10:08:39;101843.91;;;25.48;100.00
25430;BME280;13360;48.152;-1.788;2023-06-14T10:11:05;101808.09;;;25.37;100.00
25430;BME280;13360;48.152;-1.788;2023-06-14T10:13:31;101789.09;;;25.37;100.00
25430;BME280;13360;48.152;-1.788;2023-06-14T10:16:00;101730.06;;;25.97;100.00
25430;BME280;13360;48.152;-1.788;2023-06-14T10:23:32;101458.72;;;28.28;100.00
25430;BME280;13360;48.152;-1.788;2023-06-14T10:25:59;101405.53;;;28.21;100.00
25430;BME280;13360;48.152;-1.788;2023-06-14T10:28:25;101333.66;;;27.92;100.00
25430;BME280;13360;48.152;-1.788;2023-06-14T10:31:10;101309.34;;;27.98;100.00
25430;BME280;13360;48.152;-1.788;2023-06-14T10:33:39;101292.78;;;28.39;100.00
25430;BME280;13360;48.152;-1.788;2023-06-14T10:36:08;101281.38;;;28.89;100.00
25430;BME280;13360;48.152;-1.788;2023-06-14T10:38:33;101254.44;;;29.33;100.00
25430;BME280;13360;48.152;-1.788;2023-06-14T10:41:00;101245.78;;;29.65;100.00
25430;BME280;13360;48.152;-1.788;2023-06-14T10:43:25;101233.13;;;29.69;100.00
25430;BME280;13360;48.152;-1.788;2023-06-14T10:48:36;101212.66;;;29.12;100.00
25430;BME280;13360;48.152;-1.788;2023-06-14T10:51:05;101209.97;;;28.02;100.00
25430;BME280;13360;48.152;-1.788;2023-06-14T10:53:30;101229.19;;;27.21;100.00
25430;BME280;13360;48.152;-1.788;2023-06-14T10:56:07;101231.69;;;26.64;100.00
25430;BME280;13360;48.152;-1.788;2023-06-14T10:58:33;101236.66;;;26.27;100.00
25430;BME280;13360;48.152;-1.788;2023-06-14T11:00:58;101266.84;;;26.08;100.00
25430;BME280;13360;48.152;-1.788;2023-06-14T11:05:58;101314.19;;;25.78;100.00
25430;BME280;13360;48.152;-1.788;2023-06-14T11:08:31;101344.47;;;25.74;100.00
25430;BME280;13360;48.152;-1.788;2023-06-14T11:11:01;101367.88;;;25.71;100.00
25430;BME280;13360;48.152;-1.788;2023-06-14T11:13:30;101398.00;;;25.60;100.00
25430;BME280;13360;48.152;-1.788;2023-06-14T11:15:55;101415.75;;;25.57;100.00
25430;BME280;13360;48.152;-1.788;2023-06-14T11:18:22;101432.75;;;25.60;100.00
25430;BME280;13360;48.152;-1.788;2023-06-14T11:20:52;101400.75;;;25.52;100.00
25430;BME280;13360;48.152;-1.788;2023-06-14T11:23:17;101415.69;;;25.53;100.00
25430;BME280;13360;48.152;-1.788;2023-06-14T11:25:43;101428.09;;;25.45;100.00
25430;BME280;13360;48.152;-1.788;2023-06-14T11:28:08;101460.03;;;25.45;100.00
25430;BME280;13360;48.152;-1.788;2023-06-14T11:30:33;101482.66;;;25.45;100.00
25430;BME280;13360;48.152;-1.788;2023-06-14T11:32:59;101476.22;;;25.48;100.00
25430;BME280;13360;48.152;-1.788;2023-06-14T11:35:25;101474.16;;;25.45;100.00
25430;BME280;13360;48.152;-1.788;2023-06-14T11:37:54;101445.56;;;25.50;100.00
25430;BME280;13360;48.152;-1.788;2023-06-14T11:40:24;101468.94;;;25.47;100.00
25430;BME280;13360;48.152;-1.788;2023-06-14T11:42:54;101482.66;;;25.45;100.00
25430;BME280;13360;48.152;-1.788;2023-06-14T11:45:22;101451.16;;;25.47;100.00
25430;BME280;13360;48.152;-1.788;2023-06-14T11:47:48;101464.91;;;25.48;100.00
25430;BME280;13360;48.152;-1.788;2023-06-14T11:50:13;101474.22;;;25.49;100.00
25430;BME280;13360;48.152;-1.788;2023-06-14T11:52:38;101491.72;;;25.58;100.00
25430;BME280;13360;48.152;-1.788;2023-06-14T11:55:03;101422.44;;;25.45;100.00
25430;BME280;13360;48.152;-1.788;2023-06-14T11:57:35;101335.44;;;25.35;100.00
25430;BME280;13360;48.152;-1.788;2023-06-14T12:00:04;101317.63;;;25.31;100.00
25430;BME280;13360;48.152;-1.788;2023-06-14T12:02:40;101259.06;;;25.31;100.00
25430;BME280;13360;48.152;-1.788;2023-06-14T12:05:05;101273.22;;;25.31;100.00
25430;BME280;13360;48.152;-1.788;2023-06-14T12:07:34;101275.59;;;25.29;100.00
25430;BME280;13360;48.152;-1.788;2023-06-14T12:12:26;101222.25;;;25.24;100.00
25430;BME280;13360;48.152;-1.788;2023-06-14T12:14:51;101218.66;;;25.27;100.00
25430;BME280;13360;48.152;-1.788;2023-06-14T12:17:17;101199.66;;;25.28;100.00
25430;BME280;13360;48.152;-1.788;2023-06-14T12:19:43;101198.13;;;25.34;100.00
25430;BME280;13360;48.152;-1.788;2023-06-14T12:22:09;101183.56;;;25.32;100.00
25430;BME280;13360;48.152;-1.788;2023-06-14T12:24:34;101174.63;;;25.26;100.00
25430;BME280;13360;48.152;-1.788;2023-06-14T12:27:00;101173.41;;;25.27;100.00
25430;BME280;13360;48.152;-1.788;2023-06-14T12:29:27;101183.94;;;25.30;100.00
25430;BME280;13360;48.152;-1.788;2023-06-14T12:31:53;101156.06;;;25.29;100.00
25430;BME280;13360;48.152;-1.788;2023-06-14T12:34:19;101166.97;;;25.30;100.00
25430;BME280;13360;48.152;-1.788;2023-06-14T12:36:44;101142.31;;;25.27;100.00
25430;BME280;13360;48.152;-1.788;2023-06-14T12:39:11;101181.53;;;25.32;100.00
25430;BME280;13360;48.152;-1.788;2023-06-14T12:41:36;101158.94;;;25.32;100.00
25430;BME280;13360;48.152;-1.788;2023-06-14T12:44:02;101153.63;;;25.27;100.00